sensor_id;sensor_type;location;lat;lon;timestamp;P1;durP1;ratioP1;P2;durP2;ratioP2
19059;SDS011;9663;48.996;8.334;2023-04-16T00:00:47;4.35;;;2.33;;
19059;SDS011;9663;48.996;8.334;2023-04-16T00:03:13;4.65;;;2.65;;
19059;SDS011;9663;48.996;8.334;2023-04-16T00:05:39;4.55;;;2.55;;
19059;SDS011;9663;48.996;8.334;2023-04-16T00:08:05;4.50;;;2.55;;
19059;SDS011;9663;48.996;8.334;2023-04-16T00:10:33;4.63;;;2.60;;
19059;SDS011;9663;48.996;8.334;2023-04-16T00:12:59;4.40;;;2.53;;
19059;SDS011;9663;48.996;8.334;2023-04-16T00:15:25;4.82;;;2.55;;
19059;SDS011;9663;48.996;8.334;2023-04-16T00:17:51;4.88;;;2.50;;
19059;SDS011;9663;48.996;8.334;2023-04-16T00:20:16;4.72;;;2.33;;
19059;SDS011;9663;48.996;8.334;2023-04-16T00:22:44;4.05;;;2.05;;
19059;SDS011;9663;48.996;8.334;2023-04-16T00:25:10;4.40;;;2.50;;
19059;SDS011;9663;48.996;8.334;2023-04-16T00:27:37;4.45;;;2.55;;
19059;SDS011;9663;48.996;8.334;2023-04-16T00:30:03;4.47;;;2.63;;
19059;SDS011;9663;48.996;8.334;2023-04-16T00:32:30;5.00;;;2.60;;
19059;SDS011;9663;48.996;8.334;2023-04-16T00:34:56;4.68;;;2.40;;
19059;SDS011;9663;48.996;8.334;2023-04-16T00:37:21;3.90;;;2.13;;
19059;SDS011;9663;48.996;8.334;2023-04-16T00:39:47;4.60;;;2.42;;
19059;SDS011;9663;48.996;8.334;2023-04-16T00:42:13;5.00;;;2.67;;
19059;SDS011;9663;48.996;8.334;2023-04-16T00:44:39;5.10;;;2.58;;
19059;SDS011;9663;48.996;8.334;2023-04-16T00:47:05;4.50;;;2.42;;
19059;SDS011;9663;48.996;8.334;2023-04-16T00:49:31;4.45;;;2.58;;
19059;SDS011;9663;48.996;8.334;2023-04-16T00:51:57;4.25;;;2.40;;
19059;SDS011;9663;48.996;8.334;2023-04-16T00:54:26;4.40;;;2.42;;
19059;SDS011;9663;48.996;8.334;2023-04-16T00:56:52;4.38;;;2.40;;
19059;SDS011;9663;48.996;8.334;2023-04-16T00:59:18;4.25;;;2.30;;
19059;SDS011;9663;48.996;8.334;2023-04-16T01:01:44;4.47;;;2.38;;
19059;SDS011;9663;48.996;8.334;2023-04-16T01:04:10;4.70;;;2.45;;
19059;SDS011;9663;48.996;8.334;2023-04-16T01:06:36;4.28;;;2.33;;
19059;SDS011;9663;48.996;8.334;2023-04-16T01:09:02;4.40;;;2.50;;
19059;SDS011;9663;48.996;8.334;2023-04-16T01:11:27;4.82;;;2.65;;
19059;SDS011;9663;48.996;8.334;2023-04-16T01:13:53;4.85;;;2.35;;
19059;SDS011;9663;48.996;8.334;2023-04-16T01:16:19;4.60;;;2.70;;
19059;SDS011;9663;48.996;8.334;2023-04-16T01:18:45;4.15;;;2.40;;
19059;SDS011;9663;48.996;8.334;2023-04-16T01:21:10;4.35;;;2.40;;
19059;SDS011;9663;48.996;8.334;2023-04-16T01:23:36;4.80;;;2.75;;
19059;SDS011;9663;48.996;8.334;2023-04-16T01:26:02;4.53;;;2.50;;
19059;SDS011;9663;48.996;8.334;2023-04-16T01:28:28;4.75;;;2.60;;
19059;SDS011;9663;48.996;8.334;2023-04-16T01:30:54;4.50;;;2.40;;
19059;SDS011;9663;48.996;8.334;2023-04-16T01:33:19;3.97;;;2.10;;
19059;SDS011;9663;48.996;8.334;2023-04-16T01:35:45;4.68;;;2.53;;
19059;SDS011;9663;48.996;8.334;2023-04-16T01:38:11;4.60;;;2.58;;
19059;SDS011;9663;48.996;8.334;2023-04-16T01:40:37;4.63;;;2.33;;
19059;SDS011;9663;48.996;8.334;2023-04-16T01:43:03;4.50;;;2.65;;
19059;SDS011;9663;48.996;8.334;2023-04-16T01:45:32;5.05;;;2.80;;
19059;SDS011;9663;48.996;8.334;2023-04-16T01:48:00;4.22;;;2.17;;
19059;SDS011;9663;48.996;8.334;2023-04-16T01:50:27;4.68;;;2.88;;
19059;SDS011;9663;48.996;8.334;2023-04-16T01:52:55;4.88;;;2.55;;
19059;SDS011;9663;48.996;8.334;2023-04-16T01:55:20;4.47;;;2.50;;
19059;SDS011;9663;48.996;8.334;2023-04-16T01:57:46;4.57;;;2.53;;
19059;SDS011;9663;48.996;8.334;2023-04-16T02:00:12;4.60;;;2.50;;
19059;SDS011;9663;48.996;8.334;2023-04-16T02:02:38;4.88;;;2.58;;
19059;SDS011;9663;48.996;8.334;2023-04-16T02:05:04;4.90;;;2.65;;
19059;SDS011;9663;48.996;8.334;2023-04-16T02:07:30;4.82;;;2.53;;
19059;SDS011;9663;48.996;8.334;2023-04-16T02:09:55;4.50;;;2.55;;
19059;SDS011;9663;48.996;8.334;2023-04-16T02:12:22;4.78;;;2.70;;
19059;SDS011;9663;48.996;8.334;2023-04-16T02:14:47;5.30;;;2.65;;
19059;SDS011;9663;48.996;8.334;2023-04-16T02:17:13;4.47;;;2.22;;
19059;SDS011;9663;48.996;8.334;2023-04-16T02:19:39;4.80;;;2.70;;
19059;SDS011;9663;48.996;8.334;2023-04-16T02:22:05;4.63;;;2.60;;
19059;SDS011;9663;48.996;8.334;2023-04-16T02:24:31;4.90;;;2.65;;
19059;SDS011;9663;48.996;8.334;2023-04-16T02:26:57;4.55;;;2.60;;
19059;SDS011;9663;48.996;8.334;2023-04-16T02:29:22;4.97;;;2.83;;
19059;SDS011;9663;48.996;8.334;2023-04-16T02:31:48;5.00;;;2.60;;
19059;SDS011;9663;48.996;8.334;2023-04-16T02:34:14;4.32;;;2.35;;
19059;SDS011;9663;48.996;8.334;2023-04-16T02:36:40;5.28;;;2.83;;
19059;SDS011;9663;48.996;8.334;2023-04-16T02:39:06;5.22;;;2.83;;
19059;SDS011;9663;48.996;8.334;2023-04-16T02:41:32;5.30;;;3.00;;
19059;SDS011;9663;48.996;8.334;2023-04-16T02:43:57;4.95;;;3.13;;
19059;SDS011;9663;48.996;8.334;2023-04-16T02:46:23;5.28;;;2.88;;
19059;SDS011;9663;48.996;8.334;2023-04-16T02:48:49;4.82;;;2.92;;
19059;SDS011;9663;48.996;8.334;2023-04-16T02:51:15;5.00;;;2.88;;
19059;SDS011;9663;48.996;8.334;2023-04-16T02:53:40;5.05;;;2.90;;
19059;SDS011;9663;48.996;8.334;2023-04-16T02:56:10;4.97;;;2.95;;
19059;SDS011;9663;48.996;8.334;2023-04-16T02:58:36;4.78;;;2.97;;
19059;SDS011;9663;48.996;8.334;2023-04-16T03:01:02;5.13;;;3.00;;
19059;SDS011;9663;48.996;8.334;2023-04-16T03:03:28;5.25;;;3.03;;
19059;SDS011;9663;48.996;8.334;2023-04-16T03:05:54;5.72;;;3.25;;
19059;SDS011;9663;48.996;8.334;2023-04-16T03:08:20;4.90;;;2.83;;
19059;SDS011;9663;48.996;8.334;2023-04-16T03:10:46;5.55;;;3.25;;
19059;SDS011;9663;48.996;8.334;2023-04-16T03:13:11;5.90;;;3.13;;
19059;SDS011;9663;48.996;8.334;2023-04-16T03:15:38;5.07;;;2.88;;
19059;SDS011;9663;48.996;8.334;2023-04-16T03:18:04;5.25;;;3.13;;
19059;SDS011;9663;48.996;8.334;2023-04-16T03:20:29;5.53;;;3.17;;
19059;SDS011;9663;48.996;8.334;2023-04-16T03:22:55;5.03;;;3.08;;
19059;SDS011;9663;48.996;8.334;2023-04-16T03:25:21;5.32;;;2.70;;
19059;SDS011;9663;48.996;8.334;2023-04-16T03:27:47;5.25;;;3.05;;
19059;SDS011;9663;48.996;8.334;2023-04-16T03:30:13;4.95;;;2.72;;
19059;SDS011;9663;48.996;8.334;2023-04-16T03:32:39;5.60;;;3.03;;
19059;SDS011;9663;48.996;8.334;2023-04-16T03:35:05;4.80;;;2.58;;
19059;SDS011;9663;48.996;8.334;2023-04-16T03:37:32;4.95;;;2.90;;
19059;SDS011;9663;48.996;8.334;2023-04-16T03:39:59;4.88;;;2.97;;
19059;SDS011;9663;48.996;8.334;2023-04-16T03:42:25;5.22;;;3.00;;
19059;SDS011;9663;48.996;8.334;2023-04-16T03:44:51;5.60;;;3.28;;
19059;SDS011;9663;48.996;8.334;2023-04-16T03:47:17;5.00;;;3.00;;
19059;SDS011;9663;48.996;8.334;2023-04-16T03:49:44;5.40;;;3.10;;
19059;SDS011;9663;48.996;8.334;2023-04-16T03:52:10;6.90;;;3.42;;
19059;SDS011;9663;48.996;8.334;2023-04-16T03:54:36;5.50;;;3.10;;
19059;SDS011;9663;48.996;8.334;2023-04-16T03:57:01;5.57;;;3.05;;
19059;SDS011;9663;48.996;8.334;2023-04-16T03:59:27;5.50;;;3.10;;
19059;SDS011;9663;48.996;8.334;2023-04-16T04:01:53;5.38;;;2.95;;
19059;SDS011;9663;48.996;8.334;2023-04-16T04:04:19;5.55;;;2.97;;
19059;SDS011;9663;48.996;8.334;2023-04-16T04:06:44;5.32;;;2.75;;
19059;SDS011;9663;48.996;8.334;2023-04-16T04:09:13;5.20;;;2.92;;
19059;SDS011;9663;48.996;8.334;2023-04-16T04:11:40;4.95;;;3.00;;
19059;SDS011;9663;48.996;8.334;2023-04-16T04:14:07;4.35;;;2.35;;
19059;SDS011;9663;48.996;8.334;2023-04-16T04:16:33;4.85;;;2.83;;
19059;SDS011;9663;48.996;8.334;2023-04-16T04:18:59;4.50;;;2.33;;
19059;SDS011;9663;48.996;8.334;2023-04-16T04:21:26;4.90;;;3.03;;
19059;SDS011;9663;48.996;8.334;2023-04-16T04:23:52;4.88;;;2.75;;
19059;SDS011;9663;48.996;8.334;2023-04-16T04:26:18;5.53;;;2.97;;
19059;SDS011;9663;48.996;8.334;2023-04-16T04:28:44;4.93;;;3.00;;
19059;SDS011;9663;48.996;8.334;2023-04-16T04:31:11;5.63;;;3.22;;
19059;SDS011;9663;48.996;8.334;2023-04-16T04:33:37;5.30;;;3.08;;
19059;SDS011;9663;48.996;8.334;2023-04-16T04:36:03;6.25;;;3.30;;
19059;SDS011;9663;48.996;8.334;2023-04-16T04:38:29;5.55;;;3.22;;
19059;SDS011;9663;48.996;8.334;2023-04-16T04:40:55;5.30;;;3.00;;
19059;SDS011;9663;48.996;8.334;2023-04-16T04:43:21;5.05;;;2.83;;
19059;SDS011;9663;48.996;8.334;2023-04-16T04:45:47;5.53;;;2.67;;
19059;SDS011;9663;48.996;8.334;2023-04-16T04:48:13;5.13;;;2.80;;
19059;SDS011;9663;48.996;8.334;2023-04-16T04:50:40;5.22;;;2.95;;
19059;SDS011;9663;48.996;8.334;2023-04-16T04:53:06;5.30;;;2.67;;
19059;SDS011;9663;48.996;8.334;2023-04-16T04:55:36;4.65;;;2.72;;
19059;SDS011;9663;48.996;8.334;2023-04-16T04:58:03;5.20;;;2.55;;
19059;SDS011;9663;48.996;8.334;2023-04-16T05:00:30;4.80;;;2.58;;
19059;SDS011;9663;48.996;8.334;2023-04-16T05:03:00;4.82;;;2.58;;
19059;SDS011;9663;48.996;8.334;2023-04-16T05:05:27;4.65;;;2.53;;
19059;SDS011;9663;48.996;8.334;2023-04-16T05:07:53;5.07;;;2.75;;
19059;SDS011;9663;48.996;8.334;2023-04-16T05:10:19;5.30;;;2.70;;
19059;SDS011;9663;48.996;8.334;2023-04-16T05:12:48;5.00;;;2.70;;
19059;SDS011;9663;48.996;8.334;2023-04-16T05:15:14;4.55;;;2.65;;
19059;SDS011;9663;48.996;8.334;2023-04-16T05:17:40;4.30;;;2.42;;
19059;SDS011;9663;48.996;8.334;2023-04-16T05:20:06;5.32;;;2.72;;
19059;SDS011;9663;48.996;8.334;2023-04-16T05:22:33;5.22;;;2.60;;
19059;SDS011;9663;48.996;8.334;2023-04-16T05:24:59;5.43;;;2.75;;
19059;SDS011;9663;48.996;8.334;2023-04-16T05:27:26;4.70;;;2.45;;
19059;SDS011;9663;48.996;8.334;2023-04-16T05:29:52;4.43;;;2.22;;
19059;SDS011;9663;48.996;8.334;2023-04-16T05:32:17;5.32;;;2.28;;
19059;SDS011;9663;48.996;8.334;2023-04-16T05:34:43;4.90;;;2.88;;
19059;SDS011;9663;48.996;8.334;2023-04-16T05:37:09;6.13;;;2.80;;
19059;SDS011;9663;48.996;8.334;2023-04-16T05:39:34;5.60;;;3.00;;
19059;SDS011;9663;48.996;8.334;2023-04-16T05:42:00;4.50;;;2.35;;
19059;SDS011;9663;48.996;8.334;2023-04-16T05:44:26;5.07;;;2.72;;
19059;SDS011;9663;48.996;8.334;2023-04-16T05:46:51;4.70;;;2.30;;
19059;SDS011;9663;48.996;8.334;2023-04-16T05:49:17;4.40;;;2.40;;
19059;SDS011;9663;48.996;8.334;2023-04-16T05:51:43;6.10;;;2.40;;
19059;SDS011;9663;48.996;8.334;2023-04-16T05:54:09;5.40;;;2.85;;
19059;SDS011;9663;48.996;8.334;2023-04-16T05:56:35;5.05;;;2.65;;
19059;SDS011;9663;48.996;8.334;2023-04-16T05:59:01;5.20;;;2.85;;
19059;SDS011;9663;48.996;8.334;2023-04-16T06:01:26;5.78;;;2.70;;
19059;SDS011;9663;48.996;8.334;2023-04-16T06:03:52;5.13;;;2.90;;
19059;SDS011;9663;48.996;8.334;2023-04-16T06:06:18;4.53;;;2.42;;
19059;SDS011;9663;48.996;8.334;2023-04-16T06:08:43;5.32;;;2.65;;
19059;SDS011;9663;48.996;8.334;2023-04-16T06:11:09;5.78;;;3.00;;
19059;SDS011;9663;48.996;8.334;2023-04-16T06:13:35;5.10;;;2.42;;
19059;SDS011;9663;48.996;8.334;2023-04-16T06:16:01;4.68;;;2.50;;
19059;SDS011;9663;48.996;8.334;2023-04-16T06:18:27;4.85;;;2.65;;
19059;SDS011;9663;48.996;8.334;2023-04-16T06:20:52;5.10;;;2.50;;
19059;SDS011;9663;48.996;8.334;2023-04-16T06:23:18;5.35;;;2.80;;
19059;SDS011;9663;48.996;8.334;2023-04-16T06:25:44;4.57;;;2.47;;
19059;SDS011;9663;48.996;8.334;2023-04-16T06:28:10;4.95;;;2.38;;
19059;SDS011;9663;48.996;8.334;2023-04-16T06:30:35;4.88;;;2.45;;
19059;SDS011;9663;48.996;8.334;2023-04-16T06:33:01;5.53;;;2.78;;
19059;SDS011;9663;48.996;8.334;2023-04-16T06:35:27;5.25;;;2.65;;
19059;SDS011;9663;48.996;8.334;2023-04-16T06:37:52;5.03;;;2.85;;
19059;SDS011;9663;48.996;8.334;2023-04-16T06:40:18;4.80;;;2.50;;
19059;SDS011;9663;48.996;8.334;2023-04-16T06:42:44;5.32;;;2.80;;
19059;SDS011;9663;48.996;8.334;2023-04-16T06:45:10;4.60;;;2.42;;
19059;SDS011;9663;48.996;8.334;2023-04-16T06:47:36;4.72;;;2.38;;
19059;SDS011;9663;48.996;8.334;2023-04-16T06:50:02;4.90;;;2.50;;
19059;SDS011;9663;48.996;8.334;2023-04-16T06:52:28;5.25;;;2.80;;
19059;SDS011;9663;48.996;8.334;2023-04-16T06:54:55;4.45;;;2.40;;
19059;SDS011;9663;48.996;8.334;2023-04-16T06:57:20;4.70;;;2.50;;
19059;SDS011;9663;48.996;8.334;2023-04-16T06:59:46;4.65;;;2.60;;
19059;SDS011;9663;48.996;8.334;2023-04-16T07:02:12;5.40;;;2.60;;
19059;SDS011;9663;48.996;8.334;2023-04-16T07:04:38;5.03;;;2.65;;
19059;SDS011;9663;48.996;8.334;2023-04-16T07:07:04;4.75;;;2.33;;
19059;SDS011;9663;48.996;8.334;2023-04-16T07:09:30;4.20;;;2.22;;
19059;SDS011;9663;48.996;8.334;2023-04-16T07:11:56;5.00;;;2.60;;
19059;SDS011;9663;48.996;8.334;2023-04-16T07:14:21;4.80;;;2.60;;
19059;SDS011;9663;48.996;8.334;2023-04-16T07:16:47;4.80;;;2.50;;
19059;SDS011;9663;48.996;8.334;2023-04-16T07:19:13;5.03;;;2.60;;
19059;SDS011;9663;48.996;8.334;2023-04-16T07:21:39;5.28;;;3.00;;
19059;SDS011;9663;48.996;8.334;2023-04-16T07:24:07;6.03;;;3.05;;
19059;SDS011;9663;48.996;8.334;2023-04-16T07:26:35;4.88;;;2.67;;
19059;SDS011;9663;48.996;8.334;2023-04-16T07:29:01;5.15;;;2.65;;
19059;SDS011;9663;48.996;8.334;2023-04-16T07:31:27;4.78;;;2.53;;
19059;SDS011;9663;48.996;8.334;2023-04-16T07:33:53;5.10;;;2.80;;
19059;SDS011;9663;48.996;8.334;2023-04-16T07:36:19;5.38;;;2.88;;
19059;SDS011;9663;48.996;8.334;2023-04-16T07:38:45;4.55;;;2.38;;
19059;SDS011;9663;48.996;8.334;2023-04-16T07:41:11;5.03;;;2.45;;
19059;SDS011;9663;48.996;8.334;2023-04-16T07:43:37;4.20;;;2.30;;
19059;SDS011;9663;48.996;8.334;2023-04-16T07:46:03;5.25;;;2.80;;
19059;SDS011;9663;48.996;8.334;2023-04-16T07:48:30;5.30;;;2.88;;
19059;SDS011;9663;48.996;8.334;2023-04-16T07:50:56;5.63;;;2.55;;
19059;SDS011;9663;48.996;8.334;2023-04-16T07:53:22;4.88;;;2.63;;
19059;SDS011;9663;48.996;8.334;2023-04-16T07:55:48;4.85;;;2.40;;
19059;SDS011;9663;48.996;8.334;2023-04-16T07:58:13;5.00;;;2.70;;
19059;SDS011;9663;48.996;8.334;2023-04-16T08:00:39;4.55;;;2.30;;
19059;SDS011;9663;48.996;8.334;2023-04-16T08:03:05;5.50;;;2.92;;
19059;SDS011;9663;48.996;8.334;2023-04-16T08:05:31;5.22;;;2.67;;
19059;SDS011;9663;48.996;8.334;2023-04-16T08:07:58;4.97;;;2.78;;
19059;SDS011;9663;48.996;8.334;2023-04-16T08:10:23;5.03;;;2.78;;
19059;SDS011;9663;48.996;8.334;2023-04-16T08:12:49;5.50;;;2.50;;
19059;SDS011;9663;48.996;8.334;2023-04-16T08:15:16;5.50;;;2.70;;
19059;SDS011;9663;48.996;8.334;2023-04-16T08:17:42;4.60;;;2.45;;
19059;SDS011;9663;48.996;8.334;2023-04-16T08:20:08;4.53;;;2.47;;
19059;SDS011;9663;48.996;8.334;2023-04-16T08:22:34;5.07;;;2.22;;
19059;SDS011;9663;48.996;8.334;2023-04-16T08:25:02;4.47;;;2.30;;
19059;SDS011;9663;48.996;8.334;2023-04-16T08:27:28;5.03;;;2.60;;
19059;SDS011;9663;48.996;8.334;2023-04-16T08:29:54;4.10;;;1.98;;
19059;SDS011;9663;48.996;8.334;2023-04-16T08:32:20;4.68;;;2.30;;
19059;SDS011;9663;48.996;8.334;2023-04-16T08:34:45;4.82;;;2.30;;
19059;SDS011;9663;48.996;8.334;2023-04-16T08:37:11;4.63;;;2.50;;
19059;SDS011;9663;48.996;8.334;2023-04-16T08:39:37;4.70;;;2.40;;
19059;SDS011;9663;48.996;8.334;2023-04-16T08:42:03;5.38;;;2.42;;
19059;SDS011;9663;48.996;8.334;2023-04-16T08:44:31;5.43;;;2.40;;
19059;SDS011;9663;48.996;8.334;2023-04-16T08:47:01;5.32;;;2.35;;
19059;SDS011;9663;48.996;8.334;2023-04-16T08:49:31;5.32;;;2.65;;
19059;SDS011;9663;48.996;8.334;2023-04-16T08:52:07;4.13;;;2.20;;
19059;SDS011;9663;48.996;8.334;2023-04-16T08:54:45;5.05;;;2.47;;
19059;SDS011;9663;48.996;8.334;2023-04-16T08:57:21;4.70;;;2.22;;
19059;SDS011;9663;48.996;8.334;2023-04-16T08:59:54;4.60;;;2.20;;
19059;SDS011;9663;48.996;8.334;2023-04-16T09:02:21;4.80;;;2.30;;
19059;SDS011;9663;48.996;8.334;2023-04-16T09:04:47;4.28;;;2.05;;
19059;SDS011;9663;48.996;8.334;2023-04-16T09:07:18;4.18;;;2.03;;
19059;SDS011;9663;48.996;8.334;2023-04-16T09:09:47;4.68;;;2.30;;
19059;SDS011;9663;48.996;8.334;2023-04-16T09:12:17;4.30;;;2.10;;
19059;SDS011;9663;48.996;8.334;2023-04-16T09:14:50;4.38;;;2.25;;
19059;SDS011;9663;48.996;8.334;2023-04-16T09:17:17;4.07;;;2.05;;
19059;SDS011;9663;48.996;8.334;2023-04-16T09:19:43;4.82;;;2.35;;
19059;SDS011;9663;48.996;8.334;2023-04-16T09:22:10;4.80;;;2.33;;
19059;SDS011;9663;48.996;8.334;2023-04-16T09:24:36;4.65;;;2.30;;
19059;SDS011;9663;48.996;8.334;2023-04-16T09:27:02;4.93;;;2.30;;
19059;SDS011;9663;48.996;8.334;2023-04-16T09:29:32;4.85;;;2.55;;
19059;SDS011;9663;48.996;8.334;2023-04-16T09:32:04;5.10;;;2.30;;
19059;SDS011;9663;48.996;8.334;2023-04-16T09:34:33;5.88;;;2.35;;
19059;SDS011;9663;48.996;8.334;2023-04-16T09:37:17;5.15;;;2.80;;
19059;SDS011;9663;48.996;8.334;2023-04-16T09:39:43;4.97;;;2.50;;
19059;SDS011;9663;48.996;8.334;2023-04-16T09:42:20;4.80;;;2.50;;
19059;SDS011;9663;48.996;8.334;2023-04-16T09:44:49;6.13;;;2.65;;
19059;SDS011;9663;48.996;8.334;2023-04-16T09:47:16;5.93;;;2.60;;
19059;SDS011;9663;48.996;8.334;2023-04-16T09:49:42;5.40;;;2.67;;
19059;SDS011;9663;48.996;8.334;2023-04-16T09:52:12;4.57;;;2.40;;
19059;SDS011;9663;48.996;8.334;2023-04-16T09:54:49;5.38;;;2.70;;
19059;SDS011;9663;48.996;8.334;2023-04-16T09:57:17;5.60;;;2.90;;
19059;SDS011;9663;48.996;8.334;2023-04-16T09:59:51;5.50;;;3.00;;
19059;SDS011;9663;48.996;8.334;2023-04-16T10:02:18;5.50;;;2.58;;
19059;SDS011;9663;48.996;8.334;2023-04-16T10:04:51;4.28;;;2.30;;
19059;SDS011;9663;48.996;8.334;2023-04-16T10:07:18;5.28;;;2.70;;
19059;SDS011;9663;48.996;8.334;2023-04-16T10:09:45;5.20;;;2.50;;
19059;SDS011;9663;48.996;8.334;2023-04-16T10:12:16;5.30;;;2.58;;
19059;SDS011;9663;48.996;8.334;2023-04-16T10:14:43;4.88;;;2.35;;
19059;SDS011;9663;48.996;8.334;2023-04-16T10:17:09;5.70;;;2.67;;
19059;SDS011;9663;48.996;8.334;2023-04-16T10:19:35;5.38;;;2.90;;
19059;SDS011;9663;48.996;8.334;2023-04-16T10:22:02;5.22;;;2.70;;
19059;SDS011;9663;48.996;8.334;2023-04-16T10:24:29;5.07;;;2.13;;
19059;SDS011;9663;48.996;8.334;2023-04-16T10:26:57;5.13;;;2.53;;
19059;SDS011;9663;48.996;8.334;2023-04-16T10:29:24;5.53;;;2.40;;
19059;SDS011;9663;48.996;8.334;2023-04-16T10:31:53;5.35;;;2.75;;
19059;SDS011;9663;48.996;8.334;2023-04-16T10:34:20;5.03;;;2.13;;
19059;SDS011;9663;48.996;8.334;2023-04-16T10:36:49;5.63;;;2.60;;
19059;SDS011;9663;48.996;8.334;2023-04-16T10:39:18;4.68;;;2.58;;
19059;SDS011;9663;48.996;8.334;2023-04-16T10:41:47;5.07;;;2.30;;
19059;SDS011;9663;48.996;8.334;2023-04-16T10:44:15;5.13;;;2.38;;
19059;SDS011;9663;48.996;8.334;2023-04-16T10:46:44;5.10;;;2.53;;
19059;SDS011;9663;48.996;8.334;2023-04-16T10:51:53;5.30;;;2.85;;
19059;SDS011;9663;48.996;8.334;2023-04-16T10:54:36;6.13;;;2.47;;
19059;SDS011;9663;48.996;8.334;2023-04-16T10:57:03;7.50;;;2.60;;
19059;SDS011;9663;48.996;8.334;2023-04-16T10:59:33;4.55;;;2.22;;
19059;SDS011;9663;48.996;8.334;2023-04-16T11:02:05;4.63;;;2.40;;
19059;SDS011;9663;48.996;8.334;2023-04-16T11:04:37;4.50;;;2.38;;
19059;SDS011;9663;48.996;8.334;2023-04-16T11:12:33;4.90;;;2.53;;
19059;SDS011;9663;48.996;8.334;2023-04-16T11:20:03;4.93;;;2.38;;
19059;SDS011;9663;48.996;8.334;2023-04-16T11:22:35;5.38;;;2.70;;
19059;SDS011;9663;48.996;8.334;2023-04-16T11:25:00;5.28;;;2.58;;
19059;SDS011;9663;48.996;8.334;2023-04-16T11:27:28;5.32;;;2.58;;
19059;SDS011;9663;48.996;8.334;2023-04-16T11:30:02;4.93;;;2.42;;
19059;SDS011;9663;48.996;8.334;2023-04-16T11:32:32;4.68;;;2.28;;
19059;SDS011;9663;48.996;8.334;2023-04-16T11:35:00;4.05;;;2.10;;
19059;SDS011;9663;48.996;8.334;2023-04-16T11:37:32;5.90;;;2.20;;
19059;SDS011;9663;48.996;8.334;2023-04-16T11:40:00;3.65;;;1.70;;
19059;SDS011;9663;48.996;8.334;2023-04-16T11:42:31;3.80;;;1.83;;
19059;SDS011;9663;48.996;8.334;2023-04-16T11:45:00;3.95;;;1.98;;
19059;SDS011;9663;48.996;8.334;2023-04-16T11:47:28;3.83;;;1.67;;
19059;SDS011;9663;48.996;8.334;2023-04-16T11:49:55;4.15;;;1.88;;
19059;SDS011;9663;48.996;8.334;2023-04-16T11:54:57;4.00;;;2.00;;
19059;SDS011;9663;48.996;8.334;2023-04-16T11:57:24;4.88;;;2.47;;
19059;SDS011;9663;48.996;8.334;2023-04-16T11:59:56;4.00;;;2.05;;
19059;SDS011;9663;48.996;8.334;2023-04-16T12:08:02;3.78;;;1.67;;
19059;SDS011;9663;48.996;8.334;2023-04-16T12:10:51;3.95;;;2.05;;
19059;SDS011;9663;48.996;8.334;2023-04-16T12:13:18;4.95;;;1.90;;
19059;SDS011;9663;48.996;8.334;2023-04-16T12:15:48;4.13;;;1.98;;
19059;SDS011;9663;48.996;8.334;2023-04-16T12:18:19;4.38;;;2.05;;
19059;SDS011;9663;48.996;8.334;2023-04-16T12:20:47;4.03;;;1.80;;
19059;SDS011;9663;48.996;8.334;2023-04-16T12:23:21;4.70;;;2.25;;
19059;SDS011;9663;48.996;8.334;2023-04-16T12:25:51;4.60;;;2.10;;
19059;SDS011;9663;48.996;8.334;2023-04-16T12:28:31;4.00;;;1.75;;
19059;SDS011;9663;48.996;8.334;2023-04-16T12:30:58;3.78;;;1.63;;
19059;SDS011;9663;48.996;8.334;2023-04-16T12:33:25;3.88;;;1.70;;
19059;SDS011;9663;48.996;8.334;2023-04-16T12:35:51;4.57;;;1.83;;
19059;SDS011;9663;48.996;8.334;2023-04-16T12:38:17;4.00;;;1.92;;
19059;SDS011;9663;48.996;8.334;2023-04-16T12:40:43;4.30;;;1.90;;
19059;SDS011;9663;48.996;8.334;2023-04-16T12:43:09;4.47;;;2.22;;
19059;SDS011;9663;48.996;8.334;2023-04-16T12:45:35;4.43;;;2.10;;
19059;SDS011;9663;48.996;8.334;2023-04-16T12:48:02;4.40;;;2.00;;
19059;SDS011;9663;48.996;8.334;2023-04-16T12:50:27;4.65;;;2.28;;
19059;SDS011;9663;48.996;8.334;2023-04-16T12:52:56;4.40;;;2.00;;
19059;SDS011;9663;48.996;8.334;2023-04-16T12:55:23;4.20;;;2.08;;
19059;SDS011;9663;48.996;8.334;2023-04-16T12:57:49;5.05;;;2.65;;
19059;SDS011;9663;48.996;8.334;2023-04-16T13:00:17;4.05;;;2.25;;
19059;SDS011;9663;48.996;8.334;2023-04-16T13:02:43;4.45;;;2.13;;
19059;SDS011;9663;48.996;8.334;2023-04-16T13:05:09;5.07;;;2.63;;
19059;SDS011;9663;48.996;8.334;2023-04-16T13:07:37;3.97;;;2.13;;
19059;SDS011;9663;48.996;8.334;2023-04-16T13:10:03;4.75;;;2.33;;
19059;SDS011;9663;48.996;8.334;2023-04-16T13:12:30;4.90;;;2.10;;
19059;SDS011;9663;48.996;8.334;2023-04-16T13:14:56;4.90;;;2.20;;
19059;SDS011;9663;48.996;8.334;2023-04-16T13:17:22;4.50;;;2.10;;
19059;SDS011;9663;48.996;8.334;2023-04-16T13:19:48;4.18;;;1.98;;
19059;SDS011;9663;48.996;8.334;2023-04-16T13:22:13;4.07;;;1.90;;
19059;SDS011;9663;48.996;8.334;2023-04-16T13:24:39;4.18;;;2.08;;
19059;SDS011;9663;48.996;8.334;2023-04-16T13:27:05;3.53;;;1.55;;
19059;SDS011;9663;48.996;8.334;2023-04-16T13:29:32;3.85;;;2.00;;
19059;SDS011;9663;48.996;8.334;2023-04-16T13:32:00;4.40;;;2.10;;
19059;SDS011;9663;48.996;8.334;2023-04-16T13:34:27;3.83;;;1.73;;
19059;SDS011;9663;48.996;8.334;2023-04-16T13:36:53;4.55;;;2.10;;
19059;SDS011;9663;48.996;8.334;2023-04-16T13:39:18;4.55;;;2.03;;
19059;SDS011;9663;48.996;8.334;2023-04-16T13:41:45;4.10;;;1.80;;
19059;SDS011;9663;48.996;8.334;2023-04-16T13:44:12;3.90;;;1.92;;
19059;SDS011;9663;48.996;8.334;2023-04-16T13:46:38;4.30;;;1.88;;
19059;SDS011;9663;48.996;8.334;2023-04-16T13:49:04;3.88;;;1.67;;
19059;SDS011;9663;48.996;8.334;2023-04-16T13:51:30;4.07;;;1.77;;
19059;SDS011;9663;48.996;8.334;2023-04-16T13:53:56;3.90;;;1.70;;
19059;SDS011;9663;48.996;8.334;2023-04-16T13:56:22;3.72;;;1.80;;
19059;SDS011;9663;48.996;8.334;2023-04-16T13:58:49;3.40;;;1.58;;
19059;SDS011;9663;48.996;8.334;2023-04-16T14:01:14;3.70;;;1.67;;
19059;SDS011;9663;48.996;8.334;2023-04-16T14:03:41;4.47;;;2.00;;
19059;SDS011;9663;48.996;8.334;2023-04-16T14:06:07;4.20;;;1.90;;
19059;SDS011;9663;48.996;8.334;2023-04-16T14:08:32;3.47;;;1.65;;
19059;SDS011;9663;48.996;8.334;2023-04-16T14:10:58;4.45;;;1.70;;
19059;SDS011;9663;48.996;8.334;2023-04-16T14:13:25;4.10;;;1.88;;
19059;SDS011;9663;48.996;8.334;2023-04-16T14:15:54;3.67;;;1.63;;
19059;SDS011;9663;48.996;8.334;2023-04-16T14:18:19;3.72;;;1.60;;
19059;SDS011;9663;48.996;8.334;2023-04-16T14:20:46;5.07;;;1.83;;
19059;SDS011;9663;48.996;8.334;2023-04-16T14:23:12;4.10;;;1.73;;
19059;SDS011;9663;48.996;8.334;2023-04-16T14:25:38;3.92;;;1.90;;
19059;SDS011;9663;48.996;8.334;2023-04-16T14:28:03;4.72;;;2.13;;
19059;SDS011;9663;48.996;8.334;2023-04-16T14:30:29;3.80;;;1.75;;
19059;SDS011;9663;48.996;8.334;2023-04-16T14:32:55;5.35;;;2.33;;
19059;SDS011;9663;48.996;8.334;2023-04-16T14:35:21;4.18;;;2.03;;
19059;SDS011;9663;48.996;8.334;2023-04-16T14:37:47;3.95;;;1.95;;
19059;SDS011;9663;48.996;8.334;2023-04-16T14:40:13;3.72;;;1.70;;
19059;SDS011;9663;48.996;8.334;2023-04-16T14:42:39;4.28;;;2.03;;
19059;SDS011;9663;48.996;8.334;2023-04-16T14:45:05;3.90;;;1.90;;
19059;SDS011;9663;48.996;8.334;2023-04-16T14:47:32;4.30;;;1.85;;
19059;SDS011;9663;48.996;8.334;2023-04-16T14:49:59;5.30;;;2.30;;
19059;SDS011;9663;48.996;8.334;2023-04-16T14:52:25;4.50;;;2.30;;
19059;SDS011;9663;48.996;8.334;2023-04-16T14:54:51;4.28;;;2.03;;
19059;SDS011;9663;48.996;8.334;2023-04-16T14:57:20;4.90;;;2.30;;
19059;SDS011;9663;48.996;8.334;2023-04-16T14:59:46;4.28;;;2.05;;
19059;SDS011;9663;48.996;8.334;2023-04-16T15:02:12;4.25;;;2.08;;
19059;SDS011;9663;48.996;8.334;2023-04-16T15:04:38;4.38;;;2.05;;
19059;SDS011;9663;48.996;8.334;2023-04-16T15:07:05;4.13;;;2.08;;
19059;SDS011;9663;48.996;8.334;2023-04-16T15:09:30;5.35;;;2.35;;
19059;SDS011;9663;48.996;8.334;2023-04-16T15:11:58;5.10;;;2.70;;
19059;SDS011;9663;48.996;8.334;2023-04-16T15:14:24;5.32;;;2.60;;
19059;SDS011;9663;48.996;8.334;2023-04-16T15:16:50;4.13;;;2.00;;
19059;SDS011;9663;48.996;8.334;2023-04-16T15:19:16;4.93;;;2.30;;